sensor_id;sensor_type;location;lat;lon;timestamp;pressure;altitude;pressure_sealevel;temperature;humidity
19748;BME280;10032;51.386;12.516;2023-05-20T00:00:05;100971.63;;;12.69;100.00
19748;BME280;10032;51.386;12.516;2023-05-20T00:02:31;100969.50;;;12.71;100.00
19748;BME280;10032;51.386;12.516;2023-05-20T00:04:57;100969.00;;;12.74;100.00
19748;BME280;10032;51.386;12.516;2023-05-20T00:07:23;100969.09;;;12.79;100.00
19748;BME280;10032;51.386;12.516;2023-05-20T00:09:48;100964.47;;;12.80;100.00
19748;BME280;10032;51.386;12.516;2023-05-20T00:12:14;100961.53;;;12.81;100.00
19748;BME280;10032;51.386;12.516;2023-05-20T00:14:39;100959.03;;;12.80;100.00
19748;BME280;10032;51.386;12.516;2023-05-20T00:17:04;100956.56;;;12.78;100.00
19748;BME280;10032;51.386;12.516;2023-05-20T00:19:30;100952.28;;;12.82;100.00
19748;BME280;10032;51.386;12.516;2023-05-20T00:21:56;100956.75;;;12.88;100.00
19748;BME280;10032;51.386;12.516;2023-05-20T00:24:23;100945.88;;;12.88;100.00
19748;BME280;10032;51.386;12.516;2023-05-20T00:26:49;100945.88;;;12.88;100.00
19748;BME280;10032;51.386;12.516;2023-05-20T00:29:14;100950.84;;;12.91;100.00
19748;BME280;10032;51.386;12.516;2023-05-20T00:31:40;100939.13;;;12.91;100.00
19748;BME280;10032;51.386;12.516;2023-05-20T00:34:06;100941.59;;;12.92;100.00
19748;BME280;10032;51.386;12.516;2023-05-20T00:36:32;100948.69;;;12.93;100.00
19748;BME280;10032;51.386;12.516;2023-05-20T00:38:58;100948.25;;;12.96;100.00
19748;BME280;10032;51.386;12.516;2023-05-20T00:41:23;100942.06;;;13.01;100.00
19748;BME280;10032;51.386;12.516;2023-05-20T00:43:52;100938.00;;;13.03;100.00
19748;BME280;10032;51.386;12.516;2023-05-20T00:46:19;100925.31;;;13.09;100.00
19748;BME280;10032;51.386;12.516;2023-05-20T00:48:44;100923.97;;;13.11;100.00
19748;BME280;10032;51.386;12.516;2023-05-20T00:51:12;100928.09;;;13.14;100.00
19748;BME280;10032;51.386;12.516;2023-05-20T00:53:38;100927.06;;;13.15;100.00
19748;BME280;10032;51.386;12.516;2023-05-20T00:56:04;100926.31;;;13.19;100.00
19748;BME280;10032;51.386;12.516;2023-05-20T00:58:30;100918.16;;;13.19;100.00
19748;BME280;10032;51.386;12.516;2023-05-20T01:00:56;100922.75;;;13.19;100.00
19748;BME280;10032;51.386;12.516;2023-05-20T01:03:22;100920.72;;;13.26;100.00
19748;BME280;10032;51.386;12.516;2023-05-20T01:05:47;100932.41;;;13.26;100.00
19748;BME280;10032;51.386;12.516;2023-05-20T01:08:12;100936.53;;;13.29;100.00
19748;BME280;10032;51.386;12.516;2023-05-20T01:10:41;100939.66;;;13.37;100.00
19748;BME280;10032;51.386;12.516;2023-05-20T01:13:12;100947.34;;;13.40;100.00
19748;BME280;10032;51.386;12.516;2023-05-20T01:15:41;100944.69;;;13.45;100.00
19748;BME280;10032;51.386;12.516;2023-05-20T01:18:08;100941.66;;;13.42;100.00
19748;BME280;10032;51.386;12.516;2023-05-20T01:20:35;100943.06;;;13.44;100.00
19748;BME280;10032;51.386;12.516;2023-05-20T01:23:01;100946.56;;;13.45;100.00
19748;BME280;10032;51.386;12.516;2023-05-20T01:25:27;100944.63;;;13.40;100.00
19748;BME280;10032;51.386;12.516;2023-05-20T01:27:54;100946.25;;;13.41;100.00
19748;BME280;10032;51.386;12.516;2023-05-20T01:30:22;100938.34;;;13.40;100.00
19748;BME280;10032;51.386;12.516;2023-05-20T01:33:01;100933.25;;;13.43;100.00
19748;BME280;10032;51.386;12.516;2023-05-20T01:35:27;100934.81;;;13.39;100.00
19748;BME280;10032;51.386;12.516;2023-05-20T01:37:57;100931.09;;;13.45;100.00
19748;BME280;10032;51.386;12.516;2023-05-20T01:40:24;100935.69;;;13.45;100.00
19748;BME280;10032;51.386;12.516;2023-05-20T01:42:50;100930.75;;;13.42;100.00
19748;BME280;10032;51.386;12.516;2023-05-20T01:45:18;100933.72;;;13.40;100.00
19748;BME280;10032;51.386;12.516;2023-05-20T01:47:47;100933.72;;;13.40;100.00
19748;BME280;10032;51.386;12.516;2023-05-20T01:50:14;100930.44;;;13.38;100.00
19748;BME280;10032;51.386;12.516;2023-05-20T01:52:39;100937.38;;;13.46;100.00
19748;BME280;10032;51.386;12.516;2023-05-20T01:55:05;100932.25;;;13.49;100.00
19748;BME280;10032;51.386;12.516;2023-05-20T01:57:30;100931.41;;;13.49;100.00
19748;BME280;10032;51.386;12.516;2023-05-20T01:59:56;100928.59;;;13.44;100.00
19748;BME280;10032;51.386;12.516;2023-05-20T02:02:21;100938.50;;;13.50;100.00
19748;BME280;10032;51.386;12.516;2023-05-20T02:04:47;100934.38;;;13.47;100.00
19748;BME280;10032;51.386;12.516;2023-05-20T02:07:13;100937.94;;;13.48;100.00
19748;BME280;10032;51.386;12.516;2023-05-20T02:09:39;100940.41;;;13.49;100.00
19748;BME280;10032;51.386;12.516;2023-05-20T02:12:05;100940.47;;;13.54;100.00
19748;BME280;10032;51.386;12.516;2023-05-20T02:14:31;100950.53;;;13.54;100.00
19748;BME280;10032;51.386;12.516;2023-05-20T02:16:56;100946.41;;;13.51;100.00
19748;BME280;10032;51.386;12.516;2023-05-20T02:19:22;100945.34;;;13.52;100.00
19748;BME280;10032;51.386;12.516;2023-05-20T02:21:48;100937.75;;;13.54;100.00
19748;BME280;10032;51.386;12.516;2023-05-20T02:24:15;100930.91;;;13.52;100.00
19748;BME280;10032;51.386;12.516;2023-05-20T02:26:40;100921.84;;;13.46;100.00
19748;BME280;10032;51.386;12.516;2023-05-20T02:29:06;100914.75;;;13.45;100.00
19748;BME280;10032;51.386;12.516;2023-05-20T02:31:32;100907.16;;;13.47;100.00
19748;BME280;10032;51.386;12.516;2023-05-20T02:33:57;100925.13;;;13.48;100.00
19748;BME280;10032;51.386;12.516;2023-05-20T02:36:23;100915.59;;;13.46;100.00
19748;BME280;10032;51.386;12.516;2023-05-20T02:38:48;100924.47;;;13.41;100.00
19748;BME280;10032;51.386;12.516;2023-05-20T02:41:14;100916.91;;;13.43;100.00
19748;BME280;10032;51.386;12.516;2023-05-20T02:43:39;100923.16;;;13.44;100.00
19748;BME280;10032;51.386;12.516;2023-05-20T02:46:05;100931.09;;;13.45;100.00
19748;BME280;10032;51.386;12.516;2023-05-20T02:48:31;100917.22;;;13.47;100.00
19748;BME280;10032;51.386;12.516;2023-05-20T02:50:58;100916.16;;;13.48;100.00
19748;BME280;10032;51.386;12.516;2023-05-20T02:53:23;100931.66;;;13.47;100.00
19748;BME280;10032;51.386;12.516;2023-05-20T02:55:49;100929.75;;;13.48;100.00
19748;BME280;10032;51.386;12.516;2023-05-20T02:58:14;100920.19;;;13.45;100.00
19748;BME280;10032;51.386;12.516;2023-05-20T03:00:40;100913.09;;;13.44;100.00
19748;BME280;10032;51.386;12.516;2023-05-20T03:03:06;100910.31;;;13.39;100.00
19748;BME280;10032;51.386;12.516;2023-05-20T03:05:32;100914.09;;;13.38;100.00
19748;BME280;10032;51.386;12.516;2023-05-20T03:08:02;100923.66;;;13.41;100.00
19748;BME280;10032;51.386;12.516;2023-05-20T03:10:27;100920.50;;;13.32;100.00
19748;BME280;10032;51.386;12.516;2023-05-20T03:12:53;100933.56;;;13.30;100.00
19748;BME280;10032;51.386;12.516;2023-05-20T03:15:18;100922.13;;;13.28;100.00
19748;BME280;10032;51.386;12.516;2023-05-20T03:17:44;100916.66;;;13.28;100.00
19748;BME280;10032;51.386;12.516;2023-05-20T03:20:09;100920.63;;;13.21;100.00
19748;BME280;10032;51.386;12.516;2023-05-20T03:22:36;100921.94;;;13.18;100.00
19748;BME280;10032;51.386;12.516;2023-05-20T03:25:03;100920.53;;;13.16;100.00
19748;BME280;10032;51.386;12.516;2023-05-20T03:27:29;100917.13;;;13.09;100.00
19748;BME280;10032;51.386;12.516;2023-05-20T03:29:55;100922.84;;;13.07;100.00
19748;BME280;10032;51.386;12.516;2023-05-20T03:32:20;100915.09;;;12.99;100.00
19748;BME280;10032;51.386;12.516;2023-05-20T03:34:46;100921.72;;;12.92;100.00
19748;BME280;10032;51.386;12.516;2023-05-20T03:37:11;100923.88;;;12.90;100.00
19748;BME280;10032;51.386;12.516;2023-05-20T03:39:37;100921.91;;;12.85;100.00
19748;BME280;10032;51.386;12.516;2023-05-20T03:42:02;100927.56;;;12.84;100.00
19748;BME280;10032;51.386;12.516;2023-05-20T03:44:27;100925.44;;;12.86;100.00
19748;BME280;10032;51.386;12.516;2023-05-20T03:46:53;100916.69;;;12.84;100.00
19748;BME280;10032;51.386;12.516;2023-05-20T03:49:18;100923.22;;;12.83;100.00
19748;BME280;10032;51.386;12.516;2023-05-20T03:51:44;100923.53;;;12.86;100.00
19748;BME280;10032;51.386;12.516;2023-05-20T03:54:09;100923.47;;;12.81;100.00
19748;BME280;10032;51.386;12.516;2023-05-20T03:56:35;100915.88;;;12.83;100.00
19748;BME280;10032;51.386;12.516;2023-05-20T03:59:00;100915.38;;;12.86;100.00
19748;BME280;10032;51.386;12.516;2023-05-20T04:01:26;100915.38;;;12.86;100.00
19748;BME280;10032;51.386;12.516;2023-05-20T04:03:51;100920.00;;;12.86;100.00
19748;BME280;10032;51.386;12.516;2023-05-20T04:06:20;100908.13;;;12.92;100.00
19748;BME280;10032;51.386;12.516;2023-05-20T04:08:46;100919.50;;;12.89;100.00
19748;BME280;10032;51.386;12.516;2023-05-20T04:11:12;100926.91;;;12.93;100.00
19748;BME280;10032;51.386;12.516;2023-05-20T04:13:37;100928.94;;;12.98;100.00
19748;BME280;10032;51.386;12.516;2023-05-20T04:16:03;100925.97;;;12.99;100.00
19748;BME280;10032;51.386;12.516;2023-05-20T04:18:29;100921.38;;;13.00;100.00
19748;BME280;10032;51.386;12.516;2023-05-20T04:20:56;100925.50;;;13.02;100.00
19748;BME280;10032;51.386;12.516;2023-05-20T04:23:21;100917.09;;;13.04;100.00
19748;BME280;10032;51.386;12.516;2023-05-20T04:25:48;100919.06;;;13.08;100.00
19748;BME280;10032;51.386;12.516;2023-05-20T04:28:14;100919.63;;;13.10;100.00
19748;BME280;10032;51.386;12.516;2023-05-20T04:30:40;100922.09;;;13.12;100.00
19748;BME280;10032;51.386;12.516;2023-05-20T04:33:06;100918.22;;;13.08;100.00
19748;BME280;10032;51.386;12.516;2023-05-20T04:35:32;100919.53;;;13.05;100.00
19748;BME280;10032;51.386;12.516;2023-05-20T04:37:59;100922.34;;;13.10;100.00
19748;BME280;10032;51.386;12.516;2023-05-20T04:40:25;100919.84;;;13.09;100.00
19748;BME280;10032;51.386;12.516;2023-05-20T04:42:52;100924.91;;;13.17;100.00
19748;BME280;10032;51.386;12.516;2023-05-20T04:45:18;100925.22;;;13.20;100.00
19748;BME280;10032;51.386;12.516;2023-05-20T04:47:43;100929.03;;;13.19;100.00
19748;BME280;10032;51.386;12.516;2023-05-20T04:50:10;100936.63;;;13.17;100.00
19748;BME280;10032;51.386;12.516;2023-05-20T04:52:37;100948.16;;;13.24;100.00
19748;BME280;10032;51.386;12.516;2023-05-20T04:55:07;100940.16;;;13.18;100.00
19748;BME280;10032;51.386;12.516;2023-05-20T04:57:37;100943.88;;;13.12;100.00
19748;BME280;10032;51.386;12.516;2023-05-20T05:00:10;100952.34;;;13.15;100.00
19748;BME280;10032;51.386;12.516;2023-05-20T05:02:36;100951.03;;;13.18;100.00
19748;BME280;10032;51.386;12.516;2023-05-20T05:05:02;100944.13;;;13.27;100.00
19748;BME280;10032;51.386;12.516;2023-05-20T05:07:30;100943.13;;;13.33;100.00
19748;BME280;10032;51.386;12.516;2023-05-20T05:09:55;100941.47;;;13.48;100.00
19748;BME280;10032;51.386;12.516;2023-05-20T05:12:20;100940.81;;;13.58;100.00
19748;BME280;10032;51.386;12.516;2023-05-20T05:14:46;100937.31;;;13.62;100.00
19748;BME280;10032;51.386;12.516;2023-05-20T05:17:11;100935.22;;;13.69;100.00
19748;BME280;10032;51.386;12.516;2023-05-20T05:19:36;100940.44;;;13.71;100.00
19748;BME280;10032;51.386;12.516;2023-05-20T05:22:02;100944.22;;;13.86;100.00
19748;BME280;10032;51.386;12.516;2023-05-20T05:24:27;100941.13;;;13.99;100.00
19748;BME280;10032;51.386;12.516;2023-05-20T05:26:54;100943.97;;;14.09;100.00
19748;BME280;10032;51.386;12.516;2023-05-20T05:29:19;100941.81;;;14.11;100.00
19748;BME280;10032;51.386;12.516;2023-05-20T05:31:45;100945.63;;;14.10;100.00
19748;BME280;10032;51.386;12.516;2023-05-20T05:34:13;100942.47;;;14.18;100.00
19748;BME280;10032;51.386;12.516;2023-05-20T05:36:39;100935.50;;;14.27;100.00
19748;BME280;10032;51.386;12.516;2023-05-20T05:39:04;100932.28;;;14.30;100.00
19748;BME280;10032;51.386;12.516;2023-05-20T05:41:30;100933.97;;;14.36;100.00
19748;BME280;10032;51.386;12.516;2023-05-20T05:43:57;100928.53;;;14.36;100.00
19748;BME280;10032;51.386;12.516;2023-05-20T05:46:23;100922.28;;;14.36;100.00
19748;BME280;10032;51.386;12.516;2023-05-20T05:48:48;100919.78;;;14.34;100.00
19748;BME280;10032;51.386;12.516;2023-05-20T05:51:15;100914.34;;;14.34;100.00
19748;BME280;10032;51.386;12.516;2023-05-20T05:53:41;100914.97;;;14.41;100.00
19748;BME280;10032;51.386;12.516;2023-05-20T05:56:06;100906.72;;;14.36;100.00
19748;BME280;10032;51.386;12.516;2023-05-20T05:58:32;100902.22;;;14.47;100.00
19748;BME280;10032;51.386;12.516;2023-05-20T06:00:57;100894.91;;;14.52;100.00
19748;BME280;10032;51.386;12.516;2023-05-20T06:03:23;100897.97;;;14.61;100.00
19748;BME280;10032;51.386;12.516;2023-05-20T06:05:49;100882.44;;;14.61;100.00
19748;BME280;10032;51.386;12.516;2023-05-20T06:08:14;100888.41;;;14.58;100.00
19748;BME280;10032;51.386;12.516;2023-05-20T06:10:40;100887.44;;;14.69;100.00
19748;BME280;10032;51.386;12.516;2023-05-20T06:13:05;100887.81;;;14.78;100.00
19748;BME280;10032;51.386;12.516;2023-05-20T06:15:31;100894.84;;;14.74;100.00
19748;BME280;10032;51.386;12.516;2023-05-20T06:17:56;100895.75;;;14.84;100.00
19748;BME280;10032;51.386;12.516;2023-05-20T06:20:21;100896.19;;;14.71;100.00
19748;BME280;10032;51.386;12.516;2023-05-20T06:22:47;100900.06;;;14.75;100.00
19748;BME280;10032;51.386;12.516;2023-05-20T06:25:12;100896.25;;;14.76;100.00
19748;BME280;10032;51.386;12.516;2023-05-20T06:27:38;100902.50;;;14.77;100.00
19748;BME280;10032;51.386;12.516;2023-05-20T06:30:04;100899.53;;;14.78;100.00
19748;BME280;10032;51.386;12.516;2023-05-20T06:32:30;100906.91;;;14.83;100.00
19748;BME280;10032;51.386;12.516;2023-05-20T06:34:55;100904.47;;;14.81;100.00
19748;BME280;10032;51.386;12.516;2023-05-20T06:37:20;100907.75;;;14.83;100.00
19748;BME280;10032;51.386;12.516;2023-05-20T06:39:49;100900.56;;;14.72;100.00
19748;BME280;10032;51.386;12.516;2023-05-20T06:42:18;100908.78;;;14.77;100.00
19748;BME280;10032;51.386;12.516;2023-05-20T06:44:44;100905.41;;;14.65;100.00
19748;BME280;10032;51.386;12.516;2023-05-20T06:47:09;100907.00;;;14.61;100.00
19748;BME280;10032;51.386;12.516;2023-05-20T06:49:35;100906.44;;;14.59;100.00
19748;BME280;10032;51.386;12.516;2023-05-20T06:52:01;100900.47;;;14.62;100.00
19748;BME280;10032;51.386;12.516;2023-05-20T06:54:26;100900.56;;;14.72;100.00
19748;BME280;10032;51.386;12.516;2023-05-20T06:56:52;100900.56;;;14.72;100.00
19748;BME280;10032;51.386;12.516;2023-05-20T06:59:17;100903.88;;;14.79;100.00
19748;BME280;10032;51.386;12.516;2023-05-20T07:01:43;100906.41;;;14.86;100.00
19748;BME280;10032;51.386;12.516;2023-05-20T07:04:08;100897.41;;;14.85;100.00
19748;BME280;10032;51.386;12.516;2023-05-20T07:06:33;100890.59;;;14.88;100.00
19748;BME280;10032;51.386;12.516;2023-05-20T07:08:59;100888.44;;;14.90;100.00
19748;BME280;10032;51.386;12.516;2023-05-20T07:11:25;100892.97;;;14.79;100.00
19748;BME280;10032;51.386;12.516;2023-05-20T07:13:50;100906.72;;;14.89;100.00
19748;BME280;10032;51.386;12.516;2023-05-20T07:16:16;100893.97;;;14.95;100.00
19748;BME280;10032;51.386;12.516;2023-05-20T07:18:41;100883.09;;;15.00;100.00
19748;BME280;10032;51.386;12.516;2023-05-20T07:21:07;100885.47;;;14.91;100.00
19748;BME280;10032;51.386;12.516;2023-05-20T07:23:32;100887.06;;;14.87;100.00
19748;BME280;10032;51.386;12.516;2023-05-20T07:25:57;100886.44;;;14.80;100.00
19748;BME280;10032;51.386;12.516;2023-05-20T07:28:23;100887.38;;;14.91;100.00
19748;BME280;10032;51.386;12.516;2023-05-20T07:30:48;100878.38;;;14.95;100.00
19748;BME280;10032;51.386;12.516;2023-05-20T07:33:20;100881.69;;;14.97;100.00
19748;BME280;10032;51.386;12.516;2023-05-20T07:35:46;100871.34;;;14.99;100.00
19748;BME280;10032;51.386;12.516;2023-05-20T07:38:11;100868.56;;;14.94;100.00
19748;BME280;10032;51.386;12.516;2023-05-20T07:40:38;100873.56;;;15.02;100.00
19748;BME280;10032;51.386;12.516;2023-05-20T07:43:05;100876.38;;;15.17;100.00
19748;BME280;10032;51.386;12.516;2023-05-20T07:45:33;100874.03;;;15.31;100.00
19748;BME280;10032;51.386;12.516;2023-05-20T07:47:59;100858.63;;;15.51;100.00
19748;BME280;10032;51.386;12.516;2023-05-20T07:50:24;100858.97;;;15.65;100.00
19748;BME280;10032;51.386;12.516;2023-05-20T07:52:50;100862.78;;;15.59;100.00
19748;BME280;10032;51.386;12.516;2023-05-20T07:55:15;100859.25;;;15.68;100.00
19748;BME280;10032;51.386;12.516;2023-05-20T07:57:42;100858.16;;;15.69;100.00
19748;BME280;10032;51.386;12.516;2023-05-20T08:00:08;100858.22;;;15.79;100.00
19748;BME280;10032;51.386;12.516;2023-05-20T08:02:34;100848.50;;;16.03;100.00
19748;BME280;10032;51.386;12.516;2023-05-20T08:04:59;100854.53;;;16.15;100.00
19748;BME280;10032;51.386;12.516;2023-05-20T08:07:25;100846.91;;;16.22;100.00
19748;BME280;10032;51.386;12.516;2023-05-20T08:09:50;100853.00;;;16.39;100.00
19748;BME280;10032;51.386;12.516;2023-05-20T08:12:15;100858.19;;;16.46;100.00
19748;BME280;10032;51.386;12.516;2023-05-20T08:14:41;100863.66;;;16.41;100.00
19748;BME280;10032;51.386;12.516;2023-05-20T08:17:08;100857.34;;;16.35;100.00
19748;BME280;10032;51.386;12.516;2023-05-20T08:19:34;100857.88;;;16.32;100.00
19748;BME280;10032;51.386;12.516;2023-05-20T08:21:59;100854.59;;;16.35;100.00
19748;BME280;10032;51.386;12.516;2023-05-20T08:24:25;100845.38;;;16.56;100.00
19748;BME280;10032;51.386;12.516;2023-05-20T08:26:51;100852.25;;;16.69;100.00
19748;BME280;10032;51.386;12.516;2023-05-20T08:29:16;100855.25;;;16.67;100.00
19748;BME280;10032;51.386;12.516;2023-05-20T08:31:41;100844.03;;;16.74;100.00
19748;BME280;10032;51.386;12.516;2023-05-20T08:34:07;100842.09;;;16.99;100.00
19748;BME280;10032;51.386;12.516;2023-05-20T08:36:33;100851.94;;;17.15;100.00
19748;BME280;10032;51.386;12.516;2023-05-20T08:38:58;100847.56;;;17.29;100.00
19748;BME280;10032;51.386;12.516;2023-05-20T08:41:24;100845.34;;;17.31;100.00
19748;BME280;10032;51.386;12.516;2023-05-20T08:43:50;100842.34;;;17.28;100.00
19748;BME280;10032;51.386;12.516;2023-05-20T08:46:17;100839.91;;;17.41;100.00
19748;BME280;10032;51.386;12.516;2023-05-20T08:48:43;100846.19;;;17.37;100.00
19748;BME280;10032;51.386;12.516;2023-05-20T08:51:09;100845.34;;;17.51;100.00
19748;BME280;10032;51.386;12.516;2023-05-20T08:53:35;100832.13;;;17.68;100.00
19748;BME280;10032;51.386;12.516;2023-05-20T08:56:01;100833.75;;;17.74;100.00
19748;BME280;10032;51.386;12.516;2023-05-20T08:58:31;100835.16;;;18.25;100.00
19748;BME280;10032;51.386;12.516;2023-05-20T09:00:59;100826.88;;;18.40;100.00
19748;BME280;10032;51.386;12.516;2023-05-20T09:03:25;100822.81;;;18.28;100.00
19748;BME280;10032;51.386;12.516;2023-05-20T09:05:52;100828.03;;;18.29;100.00
19748;BME280;10032;51.386;12.516;2023-05-20T09:08:19;100830.22;;;18.32;100.00
19748;BME280;10032;51.386;12.516;2023-05-20T09:10:51;100830.84;;;18.14;100.00
19748;BME280;10032;51.386;12.516;2023-05-20T09:13:16;100822.59;;;18.19;100.00
19748;BME280;10032;51.386;12.516;2023-05-20T09:15:42;100814.84;;;18.26;100.00
19748;BME280;10032;51.386;12.516;2023-05-20T09:18:07;100816.09;;;18.54;100.00
19748;BME280;10032;51.386;12.516;2023-05-20T09:20:34;100813.53;;;18.62;100.00
19748;BME280;10032;51.386;12.516;2023-05-20T09:23:06;100810.63;;;18.49;100.00
19748;BME280;10032;51.386;12.516;2023-05-20T09:25:32;100810.84;;;18.57;100.00
19748;BME280;10032;51.386;12.516;2023-05-20T09:27:58;100807.78;;;18.64;100.00
19748;BME280;10032;51.386;12.516;2023-05-20T09:30:24;100814.09;;;18.59;100.00
19748;BME280;10032;51.386;12.516;2023-05-20T09:32:54;100806.66;;;18.65;100.00
19748;BME280;10032;51.386;12.516;2023-05-20T09:35:21;100803.16;;;18.88;100.00
19748;BME280;10032;51.386;12.516;2023-05-20T09:37:47;100803.28;;;19.06;100.00
19748;BME280;10032;51.386;12.516;2023-05-20T09:40:16;100807.91;;;19.63;100.00
19748;BME280;10032;51.386;12.516;2023-05-20T09:43:02;100793.13;;;19.82;100.00
19748;BME280;10032;51.386;12.516;2023-05-20T09:45:28;100804.13;;;19.82;100.00
19748;BME280;10032;51.386;12.516;2023-05-20T09:47:54;100798.00;;;19.85;100.00
19748;BME280;10032;51.386;12.516;2023-05-20T09:50:21;100801.69;;;19.99;100.00
19748;BME280;10032;51.386;12.516;2023-05-20T09:52:48;100790.69;;;19.99;100.00
19748;BME280;10032;51.386;12.516;2023-05-20T09:55:16;100792.38;;;19.95;100.00
19748;BME280;10032;51.386;12.516;2023-05-20T09:57:42;100793.69;;;19.79;100.00
19748;BME280;10032;51.386;12.516;2023-05-20T10:00:08;100782.22;;;19.96;100.00
19748;BME280;10032;51.386;12.516;2023-05-20T10:02:34;100784.72;;;19.92;100.00
19748;BME280;10032;51.386;12.516;2023-05-20T10:05:04;100789.69;;;19.90;100.00
19748;BME280;10032;51.386;12.516;2023-05-20T10:08:10;100771.09;;;20.24;100.00
19748;BME280;10032;51.386;12.516;2023-05-20T10:10:47;100776.22;;;20.81;100.00
19748;BME280;10032;51.386;12.516;2023-05-20T10:13:34;100778.56;;;20.56;100.00
19748;BME280;10032;51.386;12.516;2023-05-20T10:21:36;100754.91;;;21.32;100.00
19748;BME280;10032;51.386;12.516;2023-05-20T10:24:09;100750.13;;;21.51;100.00
19748;BME280;10032;51.386;12.516;2023-05-20T10:26:39;100757.28;;;21.79;97.22
19748;BME280;10032;51.386;12.516;2023-05-20T10:29:17;100758.16;;;21.48;96.17
19748;BME280;10032;51.386;12.516;2023-05-20T10:31:44;100747.13;;;21.34;96.11
19748;BME280;10032;51.386;12.516;2023-05-20T10:34:14;100750.41;;;21.63;98.65
19748;BME280;10032;51.386;12.516;2023-05-20T10:36:44;100746.25;;;21.79;97.37
19748;BME280;10032;51.386;12.516;2023-05-20T10:39:14;100745.13;;;22.16;96.52
19748;BME280;10032;51.386;12.516;2023-05-20T10:41:43;100744.91;;;21.77;92.58
19748;BME280;10032;51.386;12.516;2023-05-20T10:44:08;100737.75;;;21.22;91.68
19748;BME280;10032;51.386;12.516;2023-05-20T10:46:34;100733.88;;;21.23;92.99
19748;BME280;10032;51.386;12.516;2023-05-20T10:49:03;100724.47;;;21.64;94.42
19748;BME280;10032;51.386;12.516;2023-05-20T10:51:29;100727.47;;;22.03;93.00
19748;BME280;10032;51.386;12.516;2023-05-20T10:53:56;100727.50;;;21.90;91.07
19748;BME280;10032;51.386;12.516;2023-05-20T10:56:24;100737.56;;;21.86;90.45
19748;BME280;10032;51.386;12.516;2023-05-20T10:58:51;100737.94;;;21.66;89.09
19748;BME280;10032;51.386;12.516;2023-05-20T11:01:18;100718.56;;;21.57;91.08
19748;BME280;10032;51.386;12.516;2023-05-20T11:03:44;100716.69;;;21.66;88.99
19748;BME280;10032;51.386;12.516;2023-05-20T11:06:12;100708.44;;;22.15;89.52
19748;BME280;10032;51.386;12.516;2023-05-20T11:08:38;100707.53;;;22.06;87.84
19748;BME280;10032;51.386;12.516;2023-05-20T11:11:03;100711.78;;;21.90;88.72
19748;BME280;10032;51.386;12.516;2023-05-20T11:13:30;100713.31;;;22.18;87.93
19748;BME280;10032;51.386;12.516;2023-05-20T11:15:55;100703.31;;;22.44;86.93
19748;BME280;10032;51.386;12.516;2023-05-20T11:18:22;100705.44;;;22.25;86.54
19748;BME280;10032;51.386;12.516;2023-05-20T11:20:47;100697.91;;;21.82;84.77
19748;BME280;10032;51.386;12.516;2023-05-20T11:23:14;100700.66;;;22.17;85.60
19748;BME280;10032;51.386;12.516;2023-05-20T11:25:39;100714.69;;;22.07;84.60
19748;BME280;10032;51.386;12.516;2023-05-20T11:28:12;100703.41;;;22.39;85.36
19748;BME280;10032;51.386;12.516;2023-05-20T11:30:38;100699.13;;;22.77;86.50
19748;BME280;10032;51.386;12.516;2023-05-20T11:33:04;100710.47;;;22.45;82.54
19748;BME280;10032;51.386;12.516;2023-05-20T11:35:30;100683.06;;;22.79;84.88
19748;BME280;10032;51.386;12.516;2023-05-20T11:38:00;100692.22;;;22.88;81.93
19748;BME280;10032;51.386;12.516;2023-05-20T11:40:26;100684.81;;;23.06;83.48
19748;BME280;10032;51.386;12.516;2023-05-20T11:42:53;100672.03;;;23.18;83.15
19748;BME280;10032;51.386;12.516;2023-05-20T11:45:19;100677.75;;;22.91;81.56
19748;BME280;10032;51.386;12.516;2023-05-20T11:47:45;100678.16;;;23.07;81.89
19748;BME280;10032;51.386;12.516;2023-05-20T11:50:16;100670.97;;;23.28;82.05
19748;BME280;10032;51.386;12.516;2023-05-20T11:52:42;100673.53;;;23.24;80.42
19748;BME280;10032;51.386;12.516;2023-05-20T11:55:13;100668.06;;;23.41;80.06
19748;BME280;10032;51.386;12.516;2023-05-20T11:57:39;100665.59;;;23.31;79.94
19748;BME280;10032;51.386;12.516;2023-05-20T12:00:07;100663.38;;;23.11;79.20
19748;BME280;10032;51.386;12.516;2023-05-20T12:02:34;100661.34;;;23.25;79.47
19748;BME280;10032;51.386;12.516;2023-05-20T12:05:00;100662.69;;;23.36;78.65
19748;BME280;10032;51.386;12.516;2023-05-20T12:07:25;100651.63;;;23.36;79.84
19748;BME280;10032;51.386;12.516;2023-05-20T12:09:52;100655.00;;;23.25;79.91
19748;BME280;10032;51.386;12.516;2023-05-20T12:12:17;100652.25;;;23.33;80.83
19748;BME280;10032;51.386;12.516;2023-05-20T12:14:44;100663.19;;;23.55;79.72
19748;BME280;10032;51.386;12.516;2023-05-20T12:17:09;100643.03;;;23.46;79.07
19748;BME280;10032;51.386;12.516;2023-05-20T12:19:35;100644.97;;;23.54;79.32
19748;BME280;10032;51.386;12.516;2023-05-20T12:22:01;100650.78;;;23.36;78.55
19748;BME280;10032;51.386;12.516;2023-05-20T12:24:26;100639.09;;;23.39;78.43
19748;BME280;10032;51.386;12.516;2023-05-20T12:26:52;100638.13;;;23.52;78.11
19748;BME280;10032;51.386;12.516;2023-05-20T12:29:17;100634.22;;;23.53;79.01
19748;BME280;10032;51.386;12.516;2023-05-20T12:31:42;100635.97;;;23.40;78.57
19748;BME280;10032;51.386;12.516;2023-05-20T12:34:08;100636.81;;;23.49;79.10